Terminal Aerodrome Forecast
Issued by NWS Bismarck, ND

Home | Current Version | Previous Version | Text Only | Print | Product List | Glossary On
Versions: 1 2 3 4 5 6 7 8 9 10 11 12 13
000
FTUS43 KBIS 061132
TAFISN
TAF
KISN 061132Z 0612/0712 16006KT P6SM OVC200
     FM061700 14006KT 5SM SHRA BR SCT008 OVC025
     FM070300 33014KT P6SM VCSH OVC030=

USA.gov is the U.S. government's official web portal to all federal, state and local government web resources and services.